Time;durP1;ratioP1;P1;durP2;ratioP2;P2;SDS_P1;SDS_P2;PMS_P1;PMS_P2;Temp;Humidity;BMP_temperature;BMP_pressure;BME280_temperature;BME280_humidity;BME280_pressure;Samples;Min_cycle;Max_cycle;Signal;HPM_P1;HPM_P2
2021/12/23 00:02:00;;;;;;;2.97;2.30;;;0.70;99.90;;;;;;5061027;28;20252;-79
2021/12/23 00:04:26;;;;;;;0.75;0.70;;;0.70;99.90;;;;;;5061178;28;20216;-82
2021/12/23 00:06:53;;;;;;;11.35;10.82;;;0.70;99.90;;;;;;5074845;28;20181;-80
2021/12/23 00:09:22;;;;;;;0.50;0.50;;;0.70;99.90;;;;;;5076098;28;20245;-79
2021/12/23 00:11:48;;;;;;;1.25;1.15;;;0.70;99.90;;;;;;5076543;28;20178;-81
2021/12/23 00:14:16;;;;;;;0.50;0.50;;;0.60;99.90;;;;;;5070805;28;20194;-82
2021/12/23 00:16:45;;;;;;;0.80;0.80;;;0.60;99.90;;;;;;5059820;28;20209;-80
2021/12/23 00:19:22;;;;;;;1.00;0.95;;;0.70;99.90;;;;;;5061386;28;20201;-80
2021/12/23 00:24:34;;;;;;;0.50;0.40;;;0.70;99.90;;;;;;5076543;28;20208;-81
2021/12/23 00:27:01;;;;;;;0.50;0.50;;;0.70;99.90;;;;;;5076586;28;20190;-81
2021/12/23 00:29:29;;;;;;;0.50;0.40;;;0.80;99.90;;;;;;5075944;28;20200;-80
2021/12/23 00:31:56;;;;;;;1.98;1.88;;;0.80;99.90;;;;;;5065481;28;20190;-80
2021/12/23 00:34:23;;;;;;;0.50;0.50;;;0.80;99.90;;;;;;5060017;28;20194;-80
2021/12/23 00:36:52;;;;;;;0.50;0.50;;;0.90;99.90;;;;;;5067063;28;20219;-82
2021/12/23 00:39:19;;;;;;;5.10;2.05;;;0.90;99.90;;;;;;5072626;28;20197;-79
2021/12/23 00:41:46;;;;;;;19.95;2.63;;;0.90;99.90;;;;;;5077390;28;20188;-81
2021/12/23 00:44:13;;;;;;;0.50;0.40;;;0.90;99.90;;;;;;5075659;28;20231;-81
2021/12/23 00:46:42;;;;;;;0.50;0.50;;;0.90;99.90;;;;;;5075204;28;20202;-80
2021/12/23 00:49:08;;;;;;;0.50;0.50;;;0.90;99.90;;;;;;5076176;28;20213;-82
2021/12/23 00:51:35;;;;;;;0.50;0.40;;;0.90;99.90;;;;;;5075855;28;20181;-81
2021/12/23 00:54:06;;;;;;;0.55;0.40;;;0.90;99.90;;;;;;5076606;28;20223;-81
2021/12/23 00:56:35;;;;;;;3.72;2.35;;;0.90;99.90;;;;;;5077065;28;20225;-81
2021/12/23 00:59:03;;;;;;;0.50;0.40;;;0.90;99.90;;;;;;5075653;28;20208;-81
2021/12/23 01:01:30;;;;;;;0.50;0.40;;;1.00;99.90;;;;;;5076504;28;20204;-83
2021/12/23 01:03:58;;;;;;;0.50;0.50;;;1.00;99.90;;;;;;5075553;28;20289;-80
2021/12/23 01:06:24;;;;;;;1.67;1.67;;;1.00;99.90;;;;;;5075449;28;20285;-82
2021/12/23 01:08:51;;;;;;;0.50;0.40;;;1.00;99.90;;;;;;5075428;28;20189;-81
2021/12/23 01:11:18;;;;;;;0.50;0.50;;;1.00;99.90;;;;;;5075497;28;20710;-81
2021/12/23 01:13:59;;;;;;;0.50;0.40;;;1.00;99.90;;;;;;5075548;28;20340;-81
2021/12/23 01:16:37;;;;;;;0.50;0.50;;;1.00;99.90;;;;;;5076384;28;20224;-81
2021/12/23 01:19:11;;;;;;;0.50;0.50;;;1.00;99.90;;;;;;5078128;28;20188;-82
2021/12/23 01:21:38;;;;;;;0.50;0.40;;;0.90;99.90;;;;;;5060847;28;20568;-81
2021/12/23 01:24:08;;;;;;;0.50;0.40;;;0.80;99.90;;;;;;5057213;28;20224;-80
2021/12/23 01:26:35;;;;;;;1.20;1.10;;;0.70;99.90;;;;;;5058120;28;20202;-79
2021/12/23 01:29:03;;;;;;;0.50;0.50;;;0.80;99.90;;;;;;5056957;28;20209;-80
2021/12/23 01:31:31;;;;;;;0.50;0.40;;;0.80;99.90;;;;;;5057323;28;20195;-79
2021/12/23 01:33:59;;;;;;;0.50;0.50;;;0.80;99.90;;;;;;5057096;28;20228;-78
2021/12/23 01:36:27;;;;;;;0.60;0.50;;;0.80;99.90;;;;;;5056156;28;20193;-79
2021/12/23 01:38:55;;;;;;;0.70;0.70;;;0.80;99.90;;;;;;5057139;28;20291;-79
2021/12/23 01:41:23;;;;;;;1.02;1.02;;;0.80;99.90;;;;;;5057515;28;20197;-79
2021/12/23 01:43:51;;;;;;;0.50;0.40;;;0.80;99.90;;;;;;5057094;28;20583;-79
2021/12/23 01:46:18;;;;;;;0.50;0.40;;;0.80;99.90;;;;;;5057105;28;20218;-79
2021/12/23 01:48:45;;;;;;;1.05;1.05;;;0.80;99.90;;;;;;5056903;28;20555;-79
2021/12/23 01:51:12;;;;;;;0.50;0.50;;;0.90;99.90;;;;;;5055201;28;20204;-80
2021/12/23 01:53:41;;;;;;;0.50;0.50;;;0.90;99.90;;;;;;5056870;28;20217;-80
2021/12/23 01:56:08;;;;;;;6.22;2.70;;;1.00;99.90;;;;;;5056458;28;20204;-79
2021/12/23 01:58:37;;;;;;;1.65;1.38;;;1.00;99.90;;;;;;5056053;28;20568;-79
2021/12/23 02:01:05;;;;;;;0.63;0.63;;;1.00;99.90;;;;;;5056033;28;20206;-80
2021/12/23 02:03:31;;;;;;;3.10;2.25;;;1.00;99.90;;;;;;5056577;28;20271;-80
2021/12/23 02:05:58;;;;;;;1.20;1.20;;;1.00;99.90;;;;;;5056289;28;20217;-80
2021/12/23 02:08:25;;;;;;;2.50;2.35;;;1.00;99.90;;;;;;5055850;28;20220;-81
2021/12/23 02:10:55;;;;;;;4.60;2.67;;;1.00;99.90;;;;;;5055881;28;20227;-79
2021/12/23 02:13:22;;;;;;;0.60;0.60;;;1.10;99.90;;;;;;5057324;28;20271;-79
2021/12/23 02:15:49;;;;;;;3.45;3.15;;;1.10;99.90;;;;;;5057755;28;20690;-80
2021/12/23 02:18:16;;;;;;;3.00;1.98;;;1.00;99.90;;;;;;5057318;28;20201;-80
2021/12/23 02:20:44;;;;;;;1.73;1.73;;;1.00;99.90;;;;;;5056792;28;20206;-79
2021/12/23 02:23:11;;;;;;;0.50;0.40;;;1.00;99.90;;;;;;5056701;28;20249;-80
2021/12/23 02:25:38;;;;;;;2.15;1.63;;;1.10;99.90;;;;;;5056039;28;20214;-80
2021/12/23 02:28:07;;;;;;;2.67;2.58;;;1.00;99.90;;;;;;5056568;28;20273;-80
2021/12/23 02:30:37;;;;;;;1.40;1.30;;;1.10;99.90;;;;;;5055252;28;20205;-80
2021/12/23 02:33:04;;;;;;;0.50;0.50;;;1.10;99.90;;;;;;5056073;28;20623;-80
2021/12/23 02:35:30;;;;;;;4.00;3.15;;;1.20;99.90;;;;;;5056755;28;20194;-81
2021/12/23 02:37:59;;;;;;;6.13;3.90;;;1.20;99.90;;;;;;5054922;28;20198;-80
2021/12/23 02:40:29;;;;;;;4.68;2.42;;;1.20;99.90;;;;;;5055222;28;20194;-79
2021/12/23 02:42:57;;;;;;;0.50;0.50;;;1.20;99.90;;;;;;5056256;28;20221;-80
2021/12/23 02:45:24;;;;;;;2.42;2.33;;;1.30;99.90;;;;;;5056093;28;20214;-80
2021/12/23 02:47:51;;;;;;;1.63;0.85;;;1.30;99.90;;;;;;5055794;28;20204;-80
2021/12/23 02:50:18;;;;;;;1.45;0.88;;;1.40;99.90;;;;;;5055425;28;20250;-80
2021/12/23 02:52:44;;;;;;;0.50;0.40;;;1.40;99.90;;;;;;5055880;28;20221;-79
2021/12/23 02:55:12;;;;;;;0.63;0.63;;;1.40;99.90;;;;;;5055821;28;20652;-79
2021/12/23 02:57:39;;;;;;;2.55;2.35;;;1.30;99.90;;;;;;5055580;28;20553;-80
2021/12/23 03:00:07;;;;;;;1.95;1.85;;;1.30;99.90;;;;;;5055326;28;20198;-80
2021/12/23 03:02:37;;;;;;;0.50;0.50;;;1.40;99.90;;;;;;5055520;28;20222;-80
2021/12/23 03:05:04;;;;;;;2.22;1.92;;;1.40;99.90;;;;;;5055754;28;20214;-79
2021/12/23 03:07:31;;;;;;;3.42;2.55;;;1.40;99.90;;;;;;5054803;28;20201;-80
2021/12/23 03:09:58;;;;;;;0.65;0.65;;;1.40;99.90;;;;;;5055860;28;20194;-80
2021/12/23 03:12:26;;;;;;;1.90;1.80;;;1.50;99.90;;;;;;5058160;28;20210;-80
2021/12/23 03:14:53;;;;;;;0.70;0.70;;;1.50;99.90;;;;;;5078062;28;20255;-80
2021/12/23 03:17:19;;;;;;;0.60;0.60;;;1.50;99.90;;;;;;5077878;28;20181;-80
2021/12/23 03:19:46;;;;;;;0.50;0.50;;;1.60;99.90;;;;;;5057807;28;20193;-80
2021/12/23 03:22:13;;;;;;;1.25;1.25;;;1.60;99.90;;;;;;5056254;28;20225;-80
2021/12/23 03:24:39;;;;;;;0.65;0.65;;;1.60;99.90;;;;;;5055953;28;20197;-80
2021/12/23 03:27:07;;;;;;;0.50;0.50;;;1.60;99.90;;;;;;5055341;28;20599;-80
2021/12/23 03:29:35;;;;;;;3.88;2.25;;;1.60;99.90;;;;;;5055266;28;20202;-80
2021/12/23 03:32:02;;;;;;;0.50;0.40;;;1.60;99.90;;;;;;5055496;28;20217;-80
2021/12/23 03:34:28;;;;;;;1.30;1.20;;;1.50;99.90;;;;;;5055447;28;20204;-80
2021/12/23 03:36:55;;;;;;;0.52;0.52;;;1.50;99.90;;;;;;5054814;28;20198;-80
2021/12/23 03:39:22;;;;;;;0.50;0.40;;;1.50;99.90;;;;;;5054947;28;20198;-80
2021/12/23 03:41:49;;;;;;;5.18;1.52;;;1.50;99.90;;;;;;5056176;28;20572;-80
2021/12/23 03:44:17;;;;;;;0.90;0.90;;;1.50;99.90;;;;;;5055232;28;20224;-79
2021/12/23 03:46:45;;;;;;;1.85;1.67;;;1.40;99.90;;;;;;5055418;28;20587;-80
2021/12/23 03:49:11;;;;;;;1.20;0.75;;;1.40;99.90;;;;;;5054704;28;20195;-80
2021/12/23 03:51:38;;;;;;;1.90;1.80;;;1.30;99.90;;;;;;5055400;28;20560;-80
2021/12/23 03:54:06;;;;;;;2.50;2.03;;;1.30;99.90;;;;;;5054953;28;20218;-80
2021/12/23 03:56:33;;;;;;;0.50;0.50;;;1.20;99.90;;;;;;5054986;28;20194;-80
2021/12/23 03:58:59;;;;;;;6.93;2.35;;;1.20;99.90;;;;;;5054898;28;20202;-79
2021/12/23 04:01:28;;;;;;;2.05;1.80;;;1.10;99.90;;;;;;5058316;28;20556;-80
2021/12/23 04:03:58;;;;;;;0.50;0.50;;;1.10;99.90;;;;;;5054858;28;20225;-79
2021/12/23 04:06:26;;;;;;;0.50;0.50;;;1.00;99.90;;;;;;5055266;28;20713;-80
2021/12/23 04:08:53;;;;;;;2.88;2.15;;;1.00;99.90;;;;;;5054222;28;20201;-80
2021/12/23 04:11:20;;;;;;;0.50;0.50;;;0.90;99.90;;;;;;5054833;28;20199;-80
2021/12/23 04:13:47;;;;;;;4.78;2.55;;;0.80;99.90;;;;;;5054904;28;20218;-80
2021/12/23 04:16:14;;;;;;;0.50;0.50;;;0.80;99.90;;;;;;5053614;28;20564;-82
2021/12/23 04:18:44;;;;;;;0.50;0.50;;;0.70;99.90;;;;;;5053920;28;20194;-81
2021/12/23 04:21:13;;;;;;;0.50;0.40;;;0.60;99.90;;;;;;5054334;28;20200;-80
2021/12/23 04:23:39;;;;;;;0.50;0.40;;;0.60;99.90;;;;;;5054213;28;20222;-81
2021/12/23 04:26:07;;;;;;;1.45;1.45;;;0.60;99.90;;;;;;5053892;28;20221;-81
2021/12/23 04:28:38;;;;;;;0.63;0.63;;;0.60;99.90;;;;;;5054423;28;20710;-81
2021/12/23 04:31:05;;;;;;;2.90;2.70;;;0.60;99.90;;;;;;5053513;28;20280;-82
2021/12/23 04:33:32;;;;;;;1.77;1.67;;;0.60;99.90;;;;;;5054542;28;20268;-81
2021/12/23 04:35:58;;;;;;;0.50;0.50;;;0.50;99.90;;;;;;5053907;28;20189;-81
2021/12/23 04:38:26;;;;;;;0.50;0.50;;;0.50;99.90;;;;;;5054218;28;20208;-80
2021/12/23 04:40:53;;;;;;;4.43;2.47;;;0.50;99.90;;;;;;5054004;28;20201;-80
2021/12/23 04:43:20;;;;;;;1.60;1.60;;;0.40;99.90;;;;;;5054145;28;20215;-80
2021/12/23 04:45:47;;;;;;;1.45;0.88;;;0.40;99.90;;;;;;5055032;28;20217;-79
2021/12/23 04:48:13;;;;;;;0.50;0.50;;;0.30;99.90;;;;;;5054032;28;20202;-81
2021/12/23 04:50:40;;;;;;;0.50;0.50;;;0.30;99.90;;;;;;5053941;28;20198;-80
2021/12/23 04:53:07;;;;;;;6.18;2.65;;;0.20;99.90;;;;;;5054478;28;20217;-80
2021/12/23 04:55:35;;;;;;;1.92;1.83;;;0.20;99.90;;;;;;5054088;28;20203;-80
2021/12/23 04:58:02;;;;;;;1.25;0.98;;;0.20;99.90;;;;;;5053970;28;20199;-80
2021/12/23 05:00:29;;;;;;;0.50;0.40;;;0.20;99.90;;;;;;5053718;28;20195;-80
2021/12/23 05:02:55;;;;;;;1.52;1.42;;;0.20;99.90;;;;;;5052367;28;20227;-80
2021/12/23 05:05:22;;;;;;;4.20;1.10;;;0.10;99.90;;;;;;5067090;28;20685;-80
2021/12/23 05:07:49;;;;;;;1.55;1.45;;;0.10;99.90;;;;;;5061177;28;20198;-78
2021/12/23 05:10:18;;;;;;;7.13;3.22;;;0.10;99.90;;;;;;5053304;28;20335;-82
2021/12/23 05:12:47;;;;;;;0.50;0.50;;;0.20;99.90;;;;;;5055491;28;20225;-79
2021/12/23 05:15:15;;;;;;;6.82;2.95;;;0.20;99.90;;;;;;5061539;28;20193;-80
2021/12/23 05:17:43;;;;;;;0.50;0.50;;;0.20;99.90;;;;;;5062368;28;20227;-80
2021/12/23 05:20:12;;;;;;;7.25;3.80;;;0.20;99.90;;;;;;5057127;28;20288;-80
2021/12/23 05:22:38;;;;;;;1.33;1.23;;;0.20;99.90;;;;;;5053496;28;20228;-80
2021/12/23 05:25:07;;;;;;;0.70;0.60;;;0.20;99.90;;;;;;5053447;28;20203;-80
2021/12/23 05:27:34;;;;;;;0.52;0.47;;;0.30;99.90;;;;;;5055880;28;20231;-81
2021/12/23 05:30:02;;;;;;;3.97;2.72;;;0.30;99.90;;;;;;5056776;28;20197;-79
2021/12/23 05:32:29;;;;;;;2.47;2.38;;;0.30;99.90;;;;;;5057347;28;20221;-80
2021/12/23 05:34:56;;;;;;;39.17;30.90;;;0.40;99.90;;;;;;5057487;28;20202;-80
2021/12/23 05:37:22;;;;;;;2.35;2.15;;;0.50;99.90;;;;;;5056952;28;20693;-80
2021/12/23 05:39:49;;;;;;;3.75;3.45;;;0.50;99.90;;;;;;5056774;28;20194;-79
2021/12/23 05:42:16;;;;;;;6.65;6.07;;;0.60;99.90;;;;;;5061762;28;20217;-78
2021/12/23 05:44:43;;;;;;;3.88;3.15;;;0.60;99.90;;;;;;5058708;28;20209;-82
2021/12/23 05:47:11;;;;;;;8.75;6.45;;;0.70;99.90;;;;;;5056475;28;20221;-81
2021/12/23 05:49:38;;;;;;;5.38;1.02;;;0.70;99.90;;;;;;5056446;28;20198;-79
2021/12/23 05:52:05;;;;;;;6.55;4.35;;;0.70;99.90;;;;;;5057400;28;20216;-80
2021/12/23 05:54:32;;;;;;;4.85;4.15;;;0.80;99.90;;;;;;5056526;28;20706;-80
2021/12/23 05:57:02;;;;;;;4.20;3.85;;;0.80;99.90;;;;;;5057052;28;20200;-81
2021/12/23 05:59:29;;;;;;;3.08;2.78;;;0.80;99.90;;;;;;5056589;28;20200;-79
2021/12/23 06:01:55;;;;;;;8.68;6.03;;;0.90;99.90;;;;;;5056824;28;20205;-80
2021/12/23 06:04:24;;;;;;;4.43;4.03;;;0.90;99.90;;;;;;5056234;28;20190;-80
2021/12/23 06:06:51;;;;;;;1.50;1.40;;;0.90;99.90;;;;;;5056311;28;20217;-79
2021/12/23 06:09:18;;;;;;;1.20;1.20;;;0.90;99.90;;;;;;5055412;28;20203;-80
2021/12/23 06:11:45;;;;;;;5.65;3.63;;;0.90;99.90;;;;;;5056647;28;20217;-80
2021/12/23 06:14:11;;;;;;;0.50;0.50;;;0.90;99.90;;;;;;5056349;28;20201;-80
2021/12/23 06:16:38;;;;;;;7.70;4.43;;;0.90;99.90;;;;;;5056517;28;20219;-80
2021/12/23 06:19:05;;;;;;;1.02;0.55;;;0.90;99.90;;;;;;5056623;28;20560;-80
2021/12/23 06:21:33;;;;;;;1.33;1.23;;;0.90;99.90;;;;;;5056570;28;20194;-80
2021/12/23 06:24:03;;;;;;;7.18;2.15;;;0.90;99.90;;;;;;5055891;28;20292;-80
2021/12/23 06:26:29;;;;;;;2.55;2.15;;;0.90;99.90;;;;;;5060607;28;20220;-81
2021/12/23 06:28:56;;;;;;;1.88;1.42;;;1.00;99.90;;;;;;5059134;28;20197;-79
2021/12/23 06:31:23;;;;;;;0.60;0.60;;;1.00;99.90;;;;;;5056924;28;20193;-80
2021/12/23 06:33:50;;;;;;;5.93;4.55;;;1.00;99.90;;;;;;5056758;28;20225;-80
2021/12/23 06:36:17;;;;;;;6.90;3.90;;;1.00;99.90;;;;;;5055742;28;20201;-81
2021/12/23 06:38:46;;;;;;;1.45;1.35;;;1.00;99.90;;;;;;5056567;28;20562;-80
2021/12/23 06:41:15;;;;;;;0.80;0.73;;;1.00;99.90;;;;;;5055207;28;20205;-81
2021/12/23 06:43:42;;;;;;;5.88;4.68;;;0.90;99.90;;;;;;5056563;28;20222;-80
2021/12/23 06:46:09;;;;;;;3.00;1.90;;;0.90;99.90;;;;;;5056515;28;20252;-80
2021/12/23 06:48:36;;;;;;;1.23;1.13;;;0.90;99.90;;;;;;5056163;28;20687;-81
2021/12/23 06:51:03;;;;;;;6.63;5.38;;;0.90;99.90;;;;;;5055930;28;20201;-80
2021/12/23 06:53:30;;;;;;;4.95;3.15;;;0.90;99.90;;;;;;5056358;28;20238;-80
2021/12/23 06:56:00;;;;;;;2.88;2.78;;;0.90;99.90;;;;;;5056237;28;20209;-81
2021/12/23 06:58:28;;;;;;;0.93;0.93;;;0.90;99.90;;;;;;5056872;28;20545;-81
2021/12/23 07:00:55;;;;;;;2.88;1.95;;;0.90;99.90;;;;;;5055647;28;20224;-81
2021/12/23 07:03:24;;;;;;;1.33;1.23;;;0.90;99.90;;;;;;5055710;28;20712;-80
2021/12/23 07:05:56;;;;;;;12.85;5.05;;;1.00;99.90;;;;;;5055274;28;20201;-80
2021/12/23 07:08:27;;;;;;;1.10;1.10;;;1.00;99.90;;;;;;5056343;28;20568;-80
2021/12/23 07:10:54;;;;;;;2.22;2.10;;;1.00;99.90;;;;;;5054883;28;20219;-78
2021/12/23 07:13:24;;;;;;;6.88;4.68;;;1.00;99.90;;;;;;5057158;28;20584;-80
2021/12/23 07:15:51;;;;;;;4.95;3.67;;;1.00;99.90;;;;;;5059513;28;20663;-81
2021/12/23 07:18:17;;;;;;;9.88;2.95;;;1.00;99.90;;;;;;5077174;28;20272;-81
2021/12/23 07:20:44;;;;;;;2.47;2.28;;;0.90;99.90;;;;;;5076029;28;20187;-80
2021/12/23 07:23:11;;;;;;;1.75;1.38;;;0.90;99.90;;;;;;5075711;28;20225;-79
2021/12/23 07:25:38;;;;;;;1.55;1.45;;;0.90;99.90;;;;;;5059846;28;20201;-81
2021/12/23 07:28:05;;;;;;;9.60;2.97;;;0.90;99.90;;;;;;5063767;28;20243;-81
2021/12/23 07:30:33;;;;;;;2.17;1.63;;;0.90;99.90;;;;;;5075751;28;20186;-81
2021/12/23 07:33:00;;;;;;;2.58;2.38;;;0.90;99.90;;;;;;5075562;28;20272;-80
2021/12/23 07:35:27;;;;;;;1.45;1.35;;;0.90;99.90;;;;;;5073026;28;20196;-80
2021/12/23 07:37:57;;;;;;;1.52;1.45;;;1.00;99.90;;;;;;5073340;28;20201;-80
2021/12/23 07:40:23;;;;;;;0.60;0.57;;;1.10;99.90;;;;;;5075353;28;20193;-81
2021/12/23 07:42:56;;;;;;;4.43;2.67;;;1.10;99.90;;;;;;5061933;28;20222;-80
2021/12/23 07:45:24;;;;;;;4.30;1.30;;;1.10;99.90;;;;;;5055173;28;20269;-80
2021/12/23 07:47:53;;;;;;;5.97;3.60;;;1.10;99.90;;;;;;5055103;28;20307;-80
2021/12/23 07:50:19;;;;;;;1.98;1.88;;;1.10;99.90;;;;;;5054112;28;20193;-81
2021/12/23 07:52:47;;;;;;;2.72;2.28;;;1.20;99.90;;;;;;5054062;28;20226;-80
2021/12/23 07:55:14;;;;;;;6.40;5.75;;;1.20;99.90;;;;;;5055048;28;20203;-81
2021/12/23 07:57:41;;;;;;;2.15;1.35;;;1.20;99.90;;;;;;5054915;28;20194;-80
2021/12/23 08:00:08;;;;;;;2.88;2.33;;;1.20;99.90;;;;;;5053926;28;20389;-81
2021/12/23 08:02:35;;;;;;;5.07;4.82;;;1.20;99.90;;;;;;5054025;28;20214;-80
2021/12/23 08:05:04;;;;;;;1.85;1.75;;;1.20;99.90;;;;;;5054078;28;20205;-81
2021/12/23 08:07:31;;;;;;;0.70;0.70;;;1.20;99.90;;;;;;5054145;28;20218;-80
2021/12/23 08:09:58;;;;;;;0.50;0.40;;;1.20;99.90;;;;;;5053629;28;20666;-80
2021/12/23 08:12:24;;;;;;;3.40;3.10;;;1.20;99.90;;;;;;5053981;28;20217;-80
2021/12/23 08:14:52;;;;;;;2.45;2.25;;;1.20;99.90;;;;;;5053942;28;20205;-80
2021/12/23 08:17:19;;;;;;;0.57;0.55;;;1.20;99.90;;;;;;5053924;28;20213;-80
2021/12/23 08:19:45;;;;;;;0.60;0.60;;;1.20;99.90;;;;;;5053956;28;20194;-80
2021/12/23 08:22:13;;;;;;;4.90;3.33;;;1.30;99.90;;;;;;5053483;28;20233;-79
2021/12/23 08:24:40;;;;;;;12.18;6.50;;;1.40;99.90;;;;;;5054851;28;20674;-80
2021/12/23 08:27:08;;;;;;;1.50;1.23;;;1.40;99.90;;;;;;5054259;28;20221;-80
2021/12/23 08:29:37;;;;;;;3.92;1.58;;;1.40;99.90;;;;;;5053304;28;20220;-80
2021/12/23 08:32:05;;;;;;;2.85;2.65;;;1.50;99.90;;;;;;5053358;28;20225;-79
2021/12/23 08:34:34;;;;;;;1.38;1.30;;;1.50;99.90;;;;;;5053853;28;20201;-79
2021/12/23 08:37:02;;;;;;;1.90;1.77;;;1.60;99.90;;;;;;5054101;28;20259;-79
2021/12/23 08:39:30;;;;;;;2.17;2.08;;;1.60;99.90;;;;;;5052604;28;20686;-79
2021/12/23 08:41:57;;;;;;;8.88;1.92;;;1.70;99.90;;;;;;5053134;28;20199;-79
2021/12/23 08:44:23;;;;;;;0.95;0.95;;;1.70;99.90;;;;;;5053275;28;20876;-79
2021/12/23 08:46:50;;;;;;;3.72;2.25;;;1.80;99.90;;;;;;5053634;28;20213;-78
2021/12/23 08:49:17;;;;;;;2.92;2.78;;;1.80;99.90;;;;;;5053606;28;20214;-79
2021/12/23 08:51:43;;;;;;;5.50;1.75;;;1.80;99.90;;;;;;5053620;28;20206;-77
2021/12/23 08:54:11;;;;;;;2.00;1.83;;;1.80;99.90;;;;;;5052856;28;20722;-78
2021/12/23 08:56:39;;;;;;;4.20;1.40;;;1.90;99.90;;;;;;5054008;28;20200;-79
2021/12/23 08:59:06;;;;;;;7.60;3.35;;;1.90;99.90;;;;;;5053542;28;20191;-79
2021/12/23 09:01:33;;;;;;;0.93;0.93;;;1.90;99.90;;;;;;5055882;28;20213;-79
2021/12/23 09:04:00;;;;;;;1.05;1.05;;;2.00;99.90;;;;;;5064118;28;20224;-79
2021/12/23 09:06:26;;;;;;;0.60;0.60;;;2.00;99.90;;;;;;5057378;28;20193;-79
2021/12/23 09:08:54;;;;;;;4.15;2.53;;;2.00;99.90;;;;;;5056623;28;20192;-77
2021/12/23 09:11:21;;;;;;;5.07;3.70;;;2.10;99.90;;;;;;5057445;28;20210;-79
2021/12/23 09:13:49;;;;;;;0.50;0.47;;;2.20;99.90;;;;;;5056827;28;20240;-78
2021/12/23 09:16:16;;;;;;;2.15;1.40;;;2.30;99.90;;;;;;5057632;28;20288;-79
2021/12/23 09:18:43;;;;;;;3.95;3.72;;;2.30;99.90;;;;;;5057088;28;20288;-79
2021/12/23 09:21:12;;;;;;;0.80;0.80;;;2.30;99.90;;;;;;5056796;28;20207;-79
2021/12/23 09:23:39;;;;;;;0.50;0.40;;;2.40;99.90;;;;;;5056981;28;20257;-79
2021/12/23 09:26:09;;;;;;;3.70;1.60;;;2.50;99.90;;;;;;5058211;28;20243;-79
2021/12/23 09:28:51;;;;;;;0.50;0.50;;;2.60;99.90;;;;;;5057275;28;20241;-79
2021/12/23 09:34:04;;;;;;;0.85;0.85;;;2.70;99.90;;;;;;5056797;28;20225;-79
2021/12/23 09:36:31;;;;;;;6.03;1.85;;;2.70;99.90;;;;;;5057289;28;20193;-79
2021/12/23 09:38:58;;;;;;;0.60;0.60;;;2.80;99.90;;;;;;5056521;28;20596;-78
2021/12/23 09:44:00;;;;;;;1.35;1.02;;;2.90;99.90;;;;;;5113301;23;20332;-81
2021/12/23 09:46:29;;;;;;;1.65;1.58;;;2.90;99.90;;;;;;5114750;28;20201;-80
2021/12/23 09:48:56;;;;;;;0.60;0.40;;;2.90;99.90;;;;;;5117378;28;20213;-80
2021/12/23 09:51:24;;;;;;;2.20;2.10;;;2.90;99.90;;;;;;5118026;28;20200;-80
2021/12/23 09:53:57;;;;;;;2.85;2.65;;;3.00;99.90;;;;;;5117579;28;20221;-80
2021/12/23 09:56:25;;;;;;;0.50;0.50;;;2.90;99.90;;;;;;5118505;28;20184;-79
2021/12/23 09:58:52;;;;;;;3.35;1.40;;;2.90;99.90;;;;;;5117207;28;20562;-79
2021/12/23 10:01:19;;;;;;;0.80;0.80;;;2.90;99.90;;;;;;5118051;28;20196;-80
2021/12/23 10:03:47;;;;;;;4.93;3.28;;;2.80;99.90;;;;;;5117629;28;20603;-80
2021/12/23 10:06:14;;;;;;;5.75;3.67;;;2.90;99.90;;;;;;5117323;27;20192;-80
2021/12/23 10:08:42;;;;;;;1.10;0.85;;;2.90;99.90;;;;;;5117510;28;20577;-81
2021/12/23 10:11:17;;;;;;;4.38;3.45;;;3.00;99.90;;;;;;5116951;28;20188;-81
2021/12/23 10:30:24;;;;;;;1.83;1.73;;;3.60;99.90;;;;;;5116144;28;20181;-80
2021/12/23 10:38:35;;;;;;;2.65;2.55;;;3.90;99.90;;;;;;5117241;28;20172;-80
2021/12/23 10:41:07;;;;;;;1.95;1.85;;;4.10;99.90;;;;;;5117324;28;20578;-80
2021/12/23 10:43:38;;;;;;;0.50;0.40;;;4.30;99.90;;;;;;5116986;27;20319;-80
2021/12/23 10:46:07;;;;;;;3.45;3.35;;;4.40;99.90;;;;;;5118013;28;20192;-81
2021/12/23 10:48:45;;;;;;;3.05;2.70;;;4.40;99.90;;;;;;5117124;28;20220;-80
2021/12/23 10:51:17;;;;;;;5.25;2.53;;;4.50;99.90;;;;;;5117585;28;20542;-80
2021/12/23 10:53:56;;;;;;;1.70;0.98;;;4.50;99.90;;;;;;5116206;28;20227;-80
2021/12/23 10:59:30;;;;;;;0.50;0.50;;;4.50;99.90;;;;;;5116257;28;20248;-80
2021/12/23 11:02:15;;;;;;;2.30;2.13;;;4.50;99.90;;;;;;5116411;28;20223;-80
2021/12/23 11:05:05;;;;;;;5.35;3.67;;;4.50;99.90;;;;;;5115973;28;20200;-80
2021/12/23 11:07:53;;;;;;;4.30;3.88;;;4.50;99.90;;;;;;5115000;28;20268;-80
2021/12/23 11:10:42;;;;;;;6.32;3.88;;;4.40;99.90;;;;;;5116074;28;20181;-80
2021/12/23 11:36:04;;;;;;;1.50;1.40;;;4.50;99.90;;;;;;5116037;28;20208;-80
2021/12/23 11:38:38;;;;;;;9.75;4.85;;;4.60;99.90;;;;;;5115382;28;20195;-80
2021/12/23 11:41:18;;;;;;;2.83;2.63;;;4.70;99.90;;;;;;5115385;28;20579;-80
2021/12/23 11:43:48;;;;;;;10.00;3.33;;;4.80;99.90;;;;;;5115169;28;20242;-80
2021/12/23 11:46:17;;;;;;;1.23;1.10;;;5.00;99.90;;;;;;5116646;28;20178;-79
2021/12/23 11:48:47;;;;;;;2.35;1.95;;;4.90;99.90;;;;;;5115374;28;20220;-78
2021/12/23 11:51:20;;;;;;;8.32;5.70;;;4.90;99.90;;;;;;5115457;28;20196;-80
2021/12/23 11:53:49;;;;;;;5.75;3.53;;;4.90;99.90;;;;;;5115501;28;20273;-80
2021/12/23 11:56:21;;;;;;;1.85;1.73;;;4.80;99.90;;;;;;5115760;28;20241;-80
2021/12/23 11:58:49;;;;;;;1.25;1.17;;;4.90;99.90;;;;;;5115059;28;20181;-78
2021/12/23 12:01:19;;;;;;;7.22;3.45;;;4.90;99.90;;;;;;5115122;28;20189;-80
2021/12/23 12:03:56;;;;;;;8.20;5.78;;;4.90;99.90;;;;;;5114935;28;20235;-80
2021/12/23 12:06:25;;;;;;;4.80;4.32;;;4.70;99.90;;;;;;5115728;28;20199;-80
2021/12/23 12:08:56;;;;;;;0.50;0.40;;;4.60;99.90;;;;;;5115392;28;20216;-80
2021/12/23 12:11:26;;;;;;;4.30;2.95;;;4.60;99.90;;;;;;5116281;28;20204;-80
2021/12/23 12:13:53;;;;;;;2.53;2.28;;;4.70;99.90;;;;;;5115540;28;20246;-80
2021/12/23 12:16:27;;;;;;;1.27;1.17;;;4.70;99.90;;;;;;5115118;28;20192;-81
2021/12/23 12:18:54;;;;;;;4.43;2.13;;;4.80;99.90;;;;;;5116204;28;20199;-81
2021/12/23 12:21:24;;;;;;;2.25;2.15;;;4.90;99.90;;;;;;5118774;28;20193;-80
2021/12/23 12:24:11;;;;;;;4.03;3.75;;;5.00;99.90;;;;;;5119905;28;20466;-81
2021/12/23 12:26:53;;;;;;;7.93;4.82;;;5.00;99.90;;;;;;5113563;28;20197;-80
2021/12/23 12:29:26;;;;;;;12.38;3.10;;;4.90;99.90;;;;;;5088597;28;20228;-77
2021/12/23 12:31:53;;;;;;;1.85;1.55;;;4.90;99.90;;;;;;5078038;28;20202;-79
2021/12/23 12:34:20;;;;;;;5.68;1.70;;;4.90;99.90;;;;;;5079441;28;20202;-78
2021/12/23 12:36:49;;;;;;;3.45;3.15;;;5.00;99.90;;;;;;5085413;28;20200;-79
2021/12/23 12:39:25;;;;;;;0.65;0.63;;;5.00;99.90;;;;;;5084043;28;20196;-80
2021/12/23 12:42:01;;;;;;;4.03;3.38;;;4.90;99.90;;;;;;5082565;28;20262;-81
2021/12/23 12:44:42;;;;;;;1.60;1.50;;;4.90;99.90;;;;;;5080513;28;20205;-81
2021/12/23 12:47:14;;;;;;;1.90;1.40;;;4.90;99.90;;;;;;5081063;28;20674;-81
2021/12/23 12:49:44;;;;;;;4.15;3.00;;;4.90;99.90;;;;;;5080939;28;20240;-78
2021/12/23 12:52:17;;;;;;;4.85;4.20;;;5.00;99.90;;;;;;5081485;28;20220;-80
2021/12/23 12:54:49;;;;;;;1.00;0.90;;;5.00;99.90;;;;;;5080915;28;20659;-80
2021/12/23 12:57:18;;;;;;;0.50;0.40;;;4.90;99.90;;;;;;5083257;28;20197;-80
2021/12/23 12:59:47;;;;;;;0.90;0.90;;;5.00;99.90;;;;;;5082802;28;20194;-81
2021/12/23 13:02:24;;;;;;;2.55;2.35;;;4.90;99.90;;;;;;5083645;28;20222;-80
2021/12/23 13:04:56;;;;;;;2.50;2.20;;;5.00;99.90;;;;;;5082836;28;20205;-80
2021/12/23 13:07:29;;;;;;;2.28;2.08;;;4.90;99.90;;;;;;5083759;28;20190;-80
2021/12/23 13:10:03;;;;;;;0.80;0.75;;;5.00;99.90;;;;;;5084134;28;20198;-80
2021/12/23 13:12:43;;;;;;;0.50;0.40;;;5.00;99.90;;;;;;5082412;28;20237;-81
2021/12/23 13:15:17;;;;;;;0.85;0.60;;;5.00;99.90;;;;;;5083727;28;20561;-79
2021/12/23 13:17:55;;;;;;;3.63;2.97;;;5.10;99.90;;;;;;5081921;28;20224;-80
2021/12/23 13:20:37;;;;;;;2.05;1.02;;;5.10;99.90;;;;;;5082366;28;20731;-80
2021/12/23 13:23:08;;;;;;;3.30;2.35;;;5.20;99.90;;;;;;5081474;28;20210;-80
2021/12/23 13:25:44;;;;;;;5.50;4.07;;;5.30;99.90;;;;;;5080287;28;20717;-81
2021/12/23 13:28:30;;;;;;;4.28;3.92;;;5.30;99.90;;;;;;5080538;28;20264;-80
2021/12/23 13:30:57;;;;;;;2.60;2.40;;;5.30;99.90;;;;;;5080189;28;20200;-79
2021/12/23 13:33:24;;;;;;;0.50;0.50;;;5.30;99.90;;;;;;5080400;28;20214;-80
2021/12/23 13:35:51;;;;;;;6.63;2.25;;;5.40;99.90;;;;;;5080581;28;20228;-80
2021/12/23 13:38:38;;;;;;;3.83;3.53;;;5.40;99.90;;;;;;5080778;28;20198;-79
2021/12/23 13:41:13;;;;;;;0.50;0.40;;;5.50;99.90;;;;;;5079920;28;20190;-80
2021/12/23 13:43:41;;;;;;;8.02;2.40;;;5.50;99.90;;;;;;5079889;28;20221;-79
2021/12/23 13:46:09;;;;;;;3.05;2.75;;;5.50;99.90;;;;;;5080492;28;20206;-80
2021/12/23 13:48:52;;;;;;;1.33;1.23;;;5.40;99.90;;;;;;5076430;28;20225;-80
2021/12/23 13:51:21;;;;;;;3.67;2.75;;;5.40;99.90;;;;;;5077189;28;20272;-80
2021/12/23 13:53:48;;;;;;;1.35;1.25;;;5.40;99.90;;;;;;5077244;28;20225;-80
2021/12/23 13:56:16;;;;;;;2.10;1.83;;;5.40;99.90;;;;;;5076042;28;20665;-79
2021/12/23 13:58:44;;;;;;;1.73;1.13;;;5.40;99.90;;;;;;5077062;28;20194;-80
2021/12/23 14:01:11;;;;;;;6.70;3.45;;;5.30;99.90;;;;;;5076896;28;20190;-79
2021/12/23 14:03:38;;;;;;;5.32;1.98;;;5.40;99.90;;;;;;5076752;28;20227;-80